createdAt,value
2023-04-29T00:01:12.225Z,4.07
2023-04-29T00:06:17.154Z,4.00
2023-04-29T00:11:20.603Z,3.80
2023-04-29T00:16:24.073Z,3.33
2023-04-29T00:21:28.662Z,3.33
2023-04-29T00:26:31.911Z,3.03
2023-04-29T00:31:35.416Z,3.27
2023-04-29T00:36:39.956Z,2.27
2023-04-29T00:41:43.368Z,2.90
2023-04-29T00:46:46.605Z,2.13
2023-04-29T00:51:51.726Z,2.60
2023-04-29T00:56:55.808Z,2.47
2023-04-29T01:02:00.884Z,1.60
2023-04-29T01:07:15.786Z,2.00
2023-04-29T01:12:26.191Z,2.50
2023-04-29T01:17:34.190Z,2.43
2023-04-29T01:22:39.632Z,2.57
2023-04-29T01:27:53.761Z,2.20
2023-04-29T01:33:04.232Z,2.07
2023-04-29T01:38:18.482Z,3.57
2023-04-29T01:43:24.851Z,4.33
2023-04-29T01:48:29.785Z,3.87
2023-04-29T01:53:33.212Z,3.20
2023-04-29T01:58:38.410Z,3.03
2023-04-29T02:04:07.873Z,2.73
2023-04-29T02:09:12.564Z,2.63
2023-04-29T02:14:22.845Z,2.20
2023-04-29T02:19:26.631Z,2.67
2023-04-29T02:24:32.678Z,1.83
2023-04-29T02:29:37.331Z,2.30
2023-04-29T02:34:40.675Z,1.90
2023-04-29T02:39:43.894Z,2.10
2023-04-29T02:44:50.798Z,1.70
2023-04-29T02:49:54.498Z,1.97
2023-04-29T02:54:57.945Z,1.80
2023-04-29T03:00:04.490Z,2.23
2023-04-29T03:05:08.582Z,2.00
2023-04-29T03:10:12.204Z,2.33
2023-04-29T03:15:17.389Z,2.20
2023-04-29T03:20:21.910Z,2.10
2023-04-29T03:25:25.356Z,2.50
2023-04-29T03:30:30.385Z,2.20
2023-04-29T03:35:34.992Z,2.10
2023-04-29T03:40:47.412Z,2.63
2023-04-29T03:45:54.303Z,2.57
2023-04-29T03:51:00.499Z,2.00
2023-04-29T03:56:04.513Z,2.60
2023-04-29T04:01:09.692Z,2.50
2023-04-29T04:06:20.075Z,2.67
2023-04-29T04:11:24.228Z,3.37
2023-04-29T04:16:40.849Z,2.20
2023-04-29T04:21:44.996Z,2.43
2023-04-29T04:26:48.323Z,1.87
2023-04-29T04:32:00.524Z,1.93
2023-04-29T04:37:04.046Z,1.87
2023-04-29T04:42:08.585Z,2.60
2023-04-29T04:47:14.112Z,2.50
2023-04-29T04:52:26.743Z,2.30
2023-04-29T04:57:40.517Z,2.40
2023-04-29T05:02:45.317Z,2.67
2023-04-29T05:07:49.049Z,2.47
2023-04-29T05:12:55.195Z,2.87
2023-04-29T05:18:00.359Z,2.17
2023-04-29T05:23:03.884Z,2.43
2023-04-29T05:28:12.895Z,2.30
2023-04-29T05:33:20.603Z,1.67
2023-04-29T05:38:29.114Z,1.97
2023-04-29T05:43:39.720Z,2.67
2023-04-29T05:48:44.412Z,4.30
2023-04-29T05:53:48.909Z,5.60
2023-04-29T05:58:52.206Z,5.40
2023-04-29T06:03:57.074Z,6.30
2023-04-29T06:09:26.287Z,5.60
2023-04-29T06:14:31.926Z,5.60
2023-04-29T06:19:37.083Z,5.00
2023-04-29T06:24:40.418Z,4.43
2023-04-29T06:29:44.919Z,3.73
2023-04-29T06:34:51.428Z,3.13
2023-04-29T06:40:13.305Z,2.30
2023-04-29T06:45:35.299Z,1.70
2023-04-29T06:50:52.280Z,2.10
2023-04-29T06:55:55.862Z,2.10
2023-04-29T07:00:59.320Z,3.00
2023-04-29T07:06:04.977Z,2.70
2023-04-29T07:11:08.430Z,2.00
2023-04-29T07:16:17.377Z,2.33
2023-04-29T07:21:22.190Z,2.20
2023-04-29T07:26:25.700Z,2.50
2023-04-29T07:31:29.989Z,2.60
2023-04-29T07:36:35.550Z,2.40
2023-04-29T07:41:38.868Z,1.87
2023-04-29T07:46:42.239Z,2.30
2023-04-29T07:51:47.357Z,2.40
2023-04-29T07:56:50.652Z,1.67
2023-04-29T08:01:56.391Z,1.80
2023-04-29T08:07:02.765Z,1.50
2023-04-29T08:12:06.762Z,1.40
2023-04-29T08:17:10.101Z,1.90
2023-04-29T08:22:15.125Z,2.30
2023-04-29T08:27:18.757Z,2.00
2023-04-29T08:32:22.737Z,2.83
2023-04-29T08:37:27.792Z,3.00
2023-04-29T08:42:36.287Z,2.90
2023-04-29T08:47:42.424Z,3.70
2023-04-29T08:52:47.340Z,3.17
2023-04-29T08:57:55.730Z,3.50
2023-04-29T09:03:00.088Z,3.50
2023-04-29T09:08:06.025Z,3.00
2023-04-29T09:13:09.301Z,2.80
2023-04-29T09:18:12.560Z,2.43
2023-04-29T09:23:17.308Z,2.20
2023-04-29T09:28:20.645Z,2.93
2023-04-29T09:33:26.184Z,2.30
2023-04-29T09:38:30.738Z,2.73
2023-04-29T09:43:33.857Z,2.70
2023-04-29T09:48:37.025Z,2.90
2023-04-29T09:53:41.626Z,2.87
2023-04-29T09:58:45.986Z,3.23
2023-04-29T10:03:50.972Z,2.93
2023-04-29T10:08:56.037Z,3.80
2023-04-29T10:13:59.826Z,3.13
2023-04-29T10:19:13.378Z,2.80
2023-04-29T10:24:19.751Z,4.00
2023-04-29T10:29:24.140Z,2.87
2023-04-29T10:34:28.840Z,3.03
2023-04-29T10:39:52.107Z,2.17
2023-04-29T10:45:23.073Z,2.67
2023-04-29T10:50:29.195Z,2.87
2023-04-29T10:55:38.334Z,2.80
2023-04-29T11:00:41.501Z,3.53
2023-04-29T11:05:47.448Z,3.00
2023-04-29T11:10:54.717Z,3.57
2023-04-29T11:16:05.864Z,3.70
2023-04-29T11:21:15.578Z,4.10
2023-04-29T11:26:21.583Z,4.30
2023-04-29T11:31:28.994Z,4.77
2023-04-29T11:36:33.558Z,5.40
2023-04-29T11:41:39.668Z,5.50
2023-04-29T11:46:43.056Z,4.93
2023-04-29T11:51:46.554Z,3.57
2023-04-29T11:56:51.270Z,4.27
2023-04-29T12:01:54.600Z,6.00
2023-04-29T12:06:59.819Z,6.63
2023-04-29T12:12:05.463Z,7.40
2023-04-29T12:17:10.926Z,6.70
2023-04-29T12:22:14.316Z,7.20
2023-04-29T12:27:19.276Z,7.10
2023-04-29T12:32:25.130Z,7.30
2023-04-29T12:37:29.277Z,7.10
2023-04-29T12:42:35.169Z,7.03
2023-04-29T12:47:40.722Z,8.37
2023-04-29T12:52:44.286Z,10.77
2023-04-29T12:57:49.056Z,9.40
2023-04-29T13:02:52.471Z,11.83
2023-04-29T13:07:56.866Z,10.40
2023-04-29T13:13:01.576Z,9.37
2023-04-29T13:18:05.326Z,9.27
2023-04-29T13:23:09.098Z,11.37
2023-04-29T13:28:13.807Z,10.20
2023-04-29T13:33:18.455Z,9.90
2023-04-29T13:38:22.937Z,10.27
2023-04-29T13:43:36.800Z,9.50
2023-04-29T14:04:02.342Z,10.60
2023-04-29T14:09:06.096Z,9.40
2023-04-29T14:14:10.878Z,9.60
2023-04-29T14:19:14.473Z,9.60
2023-04-29T14:24:17.840Z,9.10
2023-04-29T14:29:22.597Z,8.20
2023-04-29T14:34:26.183Z,7.23
2023-04-29T14:39:29.436Z,6.70
2023-04-29T14:44:34.060Z,6.23
2023-04-29T14:49:37.394Z,6.80
2023-04-29T14:54:40.534Z,5.60
2023-04-29T14:59:45.244Z,5.43
2023-04-29T15:04:49.140Z,6.00
2023-04-29T15:09:52.492Z,5.70
2023-04-29T15:14:57.187Z,5.43
2023-04-29T15:20:00.564Z,6.40
2023-04-29T15:25:04.120Z,6.13
2023-04-29T15:30:09.864Z,6.40
2023-04-29T15:35:13.597Z,5.87
2023-04-29T15:40:17.722Z,6.53
2023-04-29T15:45:22.520Z,6.10
2023-04-29T15:50:25.842Z,5.70
2023-04-29T15:55:28.980Z,5.93
2023-04-29T16:00:33.612Z,10.40
2023-04-29T16:05:38.121Z,6.83
2023-04-29T16:10:41.717Z,5.97
2023-04-29T16:15:46.436Z,6.07
2023-04-29T16:20:49.872Z,6.17
2023-04-29T16:25:53.803Z,5.27
2023-04-29T16:30:58.785Z,6.83
2023-04-29T16:36:03.074Z,7.77
2023-04-29T16:41:07.479Z,37.60
2023-04-29T16:46:12.272Z,8.20
2023-04-29T16:51:16.400Z,8.60
2023-04-29T16:56:20.460Z,7.33
2023-04-29T17:01:26.123Z,7.80
2023-04-29T17:06:29.928Z,6.93
2023-04-29T17:11:33.647Z,7.10
2023-04-29T17:16:38.386Z,7.40
2023-04-29T17:21:41.606Z,6.63
2023-04-29T17:26:44.863Z,7.10
2023-04-29T17:31:54.941Z,8.07
2023-04-29T17:36:58.220Z,7.23
2023-04-29T17:42:02.335Z,8.60
2023-04-29T17:47:09.330Z,7.20
2023-04-29T17:52:14.090Z,7.60
2023-04-29T17:57:17.351Z,7.40
2023-04-29T18:02:22.024Z,7.60
2023-04-29T18:07:25.662Z,7.47
2023-04-29T18:12:29.056Z,7.00
2023-04-29T18:17:35.028Z,7.00
2023-04-29T18:22:38.566Z,6.50
2023-04-29T18:27:41.859Z,6.50
2023-04-29T18:32:46.539Z,6.37
2023-04-29T18:37:49.844Z,6.00
2023-04-29T18:42:53.250Z,5.40
2023-04-29T18:47:58.314Z,4.50
2023-04-29T18:53:01.626Z,6.10
2023-04-29T18:58:04.911Z,4.77
2023-04-29T19:03:09.610Z,6.03
2023-04-29T19:08:16.283Z,7.00
2023-04-29T19:13:19.838Z,5.50
2023-04-29T19:18:24.516Z,4.97
2023-04-29T19:23:27.861Z,4.13
2023-04-29T19:28:31.116Z,4.17
2023-04-29T19:33:36.424Z,4.43
2023-04-29T19:38:39.826Z,4.77
2023-04-29T19:43:43.106Z,4.47
2023-04-29T19:48:47.818Z,4.23
2023-04-29T19:53:51.462Z,4.80
2023-04-29T19:58:54.783Z,4.50
2023-04-29T20:03:59.520Z,4.20
2023-04-29T20:09:02.976Z,3.83
2023-04-29T20:14:06.341Z,4.80
2023-04-29T20:19:11.850Z,3.67
2023-04-29T20:24:15.362Z,4.67
2023-04-29T20:29:18.756Z,4.30
2023-04-29T20:34:23.545Z,4.00
2023-04-29T20:39:27.194Z,4.20
2023-04-29T20:44:31.014Z,4.63
2023-04-29T20:49:35.902Z,4.53
2023-04-29T20:54:39.145Z,4.43
2023-04-29T20:59:42.367Z,4.33
2023-04-29T21:04:47.237Z,4.60
2023-04-29T21:09:50.530Z,4.93
2023-04-29T21:14:53.646Z,4.13
2023-04-29T21:19:58.415Z,3.83
2023-04-29T21:25:01.734Z,4.63
2023-04-29T21:30:06.090Z,4.20
2023-04-29T21:35:11.379Z,5.13
2023-04-29T21:40:15.251Z,5.60
2023-04-29T21:45:18.849Z,4.47
2023-04-29T21:50:23.868Z,4.80
2023-04-29T21:55:27.202Z,5.70
2023-04-29T22:00:33.227Z,6.70
2023-04-29T22:05:38.513Z,7.43
2023-04-29T22:10:41.728Z,5.43
2023-04-29T22:15:45.475Z,5.10
2023-04-29T22:20:50.213Z,5.13
2023-04-29T22:25:53.483Z,4.60
2023-04-29T22:30:57.019Z,4.67
2023-04-29T22:36:01.857Z,4.23
2023-04-29T22:41:05.932Z,4.10
2023-04-29T22:46:09.761Z,4.43
2023-04-29T22:51:14.550Z,4.60
2023-04-29T22:56:17.929Z,4.63
2023-04-29T23:01:21.254Z,4.30
2023-04-29T23:06:26.389Z,4.10
2023-04-29T23:11:29.622Z,4.47
2023-04-29T23:16:33.086Z,5.03
2023-04-29T23:21:37.703Z,4.73
2023-04-29T23:26:40.969Z,5.67
2023-04-29T23:31:45.205Z,4.40
2023-04-29T23:36:50.119Z,4.97
2023-04-29T23:41:53.689Z,4.80
2023-04-29T23:46:57.071Z,4.57
2023-04-29T23:52:02.034Z,4.77
2023-04-29T23:57:05.331Z,5.00
